createdAt,value
2023-03-16T00:01:31.894Z,98454.28
2023-03-16T00:04:05.276Z,98458.47
2023-03-16T00:06:37.133Z,98461.56
2023-03-16T00:09:07.539Z,98460.50
2023-03-16T00:11:38.232Z,98452.56
2023-03-16T00:14:08.922Z,98453.28
2023-03-16T00:16:39.697Z,98445.25
2023-03-16T00:19:12.717Z,98451.88
2023-03-16T00:21:42.991Z,98449.88
2023-03-16T00:24:13.313Z,98453.19
2023-03-16T00:26:43.287Z,98464.63
2023-03-16T00:29:13.538Z,98456.91
2023-03-16T00:31:45.785Z,98453.56
2023-03-16T00:34:18.665Z,98455.53
2023-03-16T00:36:49.515Z,98449.78
2023-03-16T00:39:20.635Z,98458.66
2023-03-16T00:41:51.231Z,98453.56
2023-03-16T00:44:21.914Z,98458.09
2023-03-16T00:46:52.238Z,98459.63
2023-03-16T00:49:25.270Z,98458.28
2023-03-16T00:51:55.365Z,98453.94
2023-03-16T00:54:27.471Z,98449.56
2023-03-16T00:56:57.983Z,98455.50
2023-03-16T00:59:29.488Z,98459.59
2023-03-16T01:01:59.494Z,98454.38
2023-03-16T01:04:32.631Z,98459.38
2023-03-16T01:07:03.120Z,98460.88
2023-03-16T01:09:37.013Z,98456.47
2023-03-16T01:12:07.769Z,98462.34
2023-03-16T01:14:39.191Z,98464.03
2023-03-16T01:17:12.456Z,98461.03
2023-03-16T01:19:45.387Z,98459.53
2023-03-16T01:22:16.066Z,98454.22
2023-03-16T01:24:47.135Z,98451.69
2023-03-16T01:27:17.697Z,98453.19
2023-03-16T01:29:47.730Z,98460.41
2023-03-16T01:32:17.824Z,98456.66
2023-03-16T01:34:51.235Z,98453.00
2023-03-16T01:37:22.708Z,98456.06
2023-03-16T01:39:58.742Z,98448.66
2023-03-16T01:42:28.961Z,98450.63
2023-03-16T01:45:02.332Z,98441.63
2023-03-16T01:47:38.041Z,98443.84
2023-03-16T01:50:13.318Z,98442.56
2023-03-16T01:52:46.196Z,98440.53
2023-03-16T01:55:17.381Z,98436.56
2023-03-16T01:57:50.451Z,98437.56
2023-03-16T02:00:25.554Z,98429.19
2023-03-16T02:03:10.889Z,98427.59
2023-03-16T02:05:57.729Z,98433.22
2023-03-16T02:08:29.918Z,98427.91
2023-03-16T02:11:00.227Z,98433.66
2023-03-16T02:13:43.650Z,98425.00
2023-03-16T02:16:19.838Z,98434.56
2023-03-16T02:18:53.483Z,98432.28
2023-03-16T02:21:33.517Z,98431.44
2023-03-16T02:24:06.054Z,98423.41
2023-03-16T02:26:45.143Z,98417.59
2023-03-16T02:29:33.029Z,98412.31
2023-03-16T02:32:06.884Z,98404.53
2023-03-16T02:34:38.009Z,98411.75
2023-03-16T02:37:10.397Z,98413.00
2023-03-16T02:39:44.317Z,98410.56
2023-03-16T02:42:22.101Z,98403.22
2023-03-16T02:44:57.706Z,98402.66
2023-03-16T02:47:38.941Z,98401.28
2023-03-16T02:50:10.777Z,98406.13
2023-03-16T02:52:42.321Z,98410.94
2023-03-16T02:55:13.153Z,98409.88
2023-03-16T02:57:43.459Z,98409.44
2023-03-16T03:00:19.228Z,98404.91
2023-03-16T03:02:55.746Z,98399.03
2023-03-16T03:05:25.977Z,98404.53
2023-03-16T03:07:56.121Z,98398.19
2023-03-16T03:10:27.205Z,98390.97
2023-03-16T03:12:57.764Z,98397.88
2023-03-16T03:15:28.246Z,98393.25
2023-03-16T03:18:07.375Z,98374.81
2023-03-16T03:20:37.540Z,98376.53
2023-03-16T03:23:07.739Z,98384.41
2023-03-16T03:25:38.008Z,98387.09
2023-03-16T03:28:08.661Z,98396.75
2023-03-16T03:30:39.420Z,98398.31
2023-03-16T03:33:13.127Z,98392.03
2023-03-16T03:35:43.853Z,98390.69
2023-03-16T03:38:16.637Z,98386.44
2023-03-16T03:40:48.678Z,98370.63
2023-03-16T03:43:18.848Z,98368.94
2023-03-16T03:45:50.071Z,98363.06
2023-03-16T03:48:23.341Z,98363.41
2023-03-16T03:50:53.766Z,98366.47
2023-03-16T03:53:42.629Z,98365.19
2023-03-16T03:56:22.464Z,98370.25
2023-03-16T03:58:52.777Z,98365.84
2023-03-16T04:01:40.002Z,98366.38
2023-03-16T04:04:13.049Z,98362.53
2023-03-16T04:06:44.571Z,98355.72
2023-03-16T04:09:14.880Z,98352.78
2023-03-16T04:11:45.032Z,98352.81
2023-03-16T04:14:15.151Z,98348.88
2023-03-16T04:16:46.339Z,98349.50
2023-03-16T04:19:19.871Z,98355.06
2023-03-16T04:21:50.400Z,98350.56
2023-03-16T04:24:22.567Z,98358.41
2023-03-16T04:26:54.368Z,98361.53
2023-03-16T04:29:25.517Z,98350.88
2023-03-16T04:31:56.869Z,98359.63
2023-03-16T04:34:31.885Z,98349.50
2023-03-16T04:37:05.314Z,98337.16
2023-03-16T04:39:38.472Z,98332.88
2023-03-16T04:42:09.917Z,98333.22
2023-03-16T04:44:44.261Z,98330.53
2023-03-16T04:47:14.654Z,98326.69
2023-03-16T04:49:48.680Z,98326.22
2023-03-16T04:52:19.027Z,98325.97
2023-03-16T04:54:49.254Z,98328.41
2023-03-16T04:57:20.732Z,98330.56
2023-03-16T04:59:54.409Z,98339.09
2023-03-16T05:02:38.559Z,98336.88
2023-03-16T05:05:12.662Z,98352.44
2023-03-16T05:07:45.834Z,98349.19
2023-03-16T05:10:19.301Z,98344.16
2023-03-16T05:12:50.619Z,98331.69
2023-03-16T05:15:21.505Z,98326.16
2023-03-16T05:18:01.939Z,98330.63
2023-03-16T05:20:35.271Z,98335.78
2023-03-16T05:23:08.291Z,98333.19
2023-03-16T05:25:47.230Z,98328.41
2023-03-16T05:28:19.849Z,98329.38
2023-03-16T05:30:56.888Z,98331.16
2023-03-16T05:33:30.638Z,98328.25
2023-03-16T05:36:10.716Z,98325.69
2023-03-16T05:38:43.125Z,98323.63
2023-03-16T05:41:18.707Z,98328.97
2023-03-16T05:44:04.636Z,98329.19
2023-03-16T05:46:59.817Z,98325.47
2023-03-16T05:49:31.430Z,98324.13
2023-03-16T05:52:07.259Z,98320.72
2023-03-16T05:54:38.857Z,98326.44
2023-03-16T05:57:12.402Z,98314.84
2023-03-16T05:59:45.338Z,98319.63
2023-03-16T06:02:16.359Z,98313.50
2023-03-16T06:04:46.735Z,98317.59
2023-03-16T06:07:19.483Z,98323.97
2023-03-16T06:09:49.734Z,98322.84
2023-03-16T06:12:19.977Z,98325.13
2023-03-16T06:14:50.745Z,98317.75
2023-03-16T06:17:25.719Z,98319.56
2023-03-16T06:19:55.715Z,98326.50
2023-03-16T06:22:30.436Z,98321.84
2023-03-16T06:25:01.026Z,98321.28
2023-03-16T06:27:30.939Z,98326.75
2023-03-16T06:30:17.181Z,98324.00
2023-03-16T06:32:49.890Z,98326.38
2023-03-16T06:35:19.897Z,98317.59
2023-03-16T06:38:07.329Z,98324.66
2023-03-16T06:41:03.077Z,98331.19
2023-03-16T06:43:36.150Z,98321.44
2023-03-16T06:46:06.871Z,98326.22
2023-03-16T06:48:37.020Z,98332.63
2023-03-16T06:51:07.826Z,98333.28
2023-03-16T06:53:41.964Z,98325.78
2023-03-16T06:56:12.241Z,98334.53
2023-03-16T06:58:45.294Z,98334.91
2023-03-16T07:01:15.383Z,98338.63
2023-03-16T07:03:45.555Z,98340.22
2023-03-16T07:06:29.437Z,98337.91
2023-03-16T07:09:02.306Z,98332.31
2023-03-16T07:11:34.193Z,98330.47
2023-03-16T07:14:04.715Z,98336.34
2023-03-16T07:16:36.723Z,98342.44
2023-03-16T07:19:09.590Z,98342.00
2023-03-16T07:21:41.366Z,98340.88
2023-03-16T07:24:18.638Z,98347.81
2023-03-16T07:26:49.208Z,98350.19
2023-03-16T07:29:28.088Z,98347.34
2023-03-16T07:31:58.801Z,98351.28
2023-03-16T07:34:36.441Z,98355.88
2023-03-16T07:37:07.009Z,98356.78
2023-03-16T07:39:40.065Z,98353.53
2023-03-16T07:42:16.239Z,98354.34
2023-03-16T07:45:02.092Z,98348.19
2023-03-16T07:47:33.827Z,98351.97
2023-03-16T07:50:12.618Z,98354.50
2023-03-16T07:52:46.363Z,98353.66
2023-03-16T07:55:20.003Z,98347.94
2023-03-16T07:57:51.549Z,98350.03
2023-03-16T08:00:29.486Z,98350.78
2023-03-16T08:03:00.301Z,98351.47
2023-03-16T08:05:32.502Z,98347.91
2023-03-16T08:08:04.720Z,98355.56
2023-03-16T08:10:38.966Z,98357.88
2023-03-16T08:13:20.571Z,98360.56
2023-03-16T08:15:56.144Z,98360.31
2023-03-16T08:18:32.729Z,98365.72
2023-03-16T08:21:03.130Z,98358.69
2023-03-16T08:23:34.630Z,98355.63
2023-03-16T08:26:09.120Z,98359.44
2023-03-16T08:28:40.902Z,98359.84
2023-03-16T08:31:15.238Z,98350.47
2023-03-16T08:33:57.234Z,98361.69
2023-03-16T08:36:30.430Z,98362.34
2023-03-16T08:39:07.005Z,98354.19
2023-03-16T08:41:46.078Z,98351.94
2023-03-16T08:44:33.404Z,98356.66
2023-03-16T08:47:03.456Z,98345.88
2023-03-16T08:49:33.727Z,98334.16
2023-03-16T08:52:13.102Z,98341.31
2023-03-16T08:54:59.803Z,98327.63
2023-03-16T08:57:34.607Z,98324.84
2023-03-16T09:00:11.657Z,98322.31
2023-03-16T09:02:42.021Z,98314.25
2023-03-16T09:05:13.656Z,98315.78
2023-03-16T09:07:43.891Z,98307.91
2023-03-16T09:10:16.504Z,98306.13
2023-03-16T09:12:49.242Z,98314.28
2023-03-16T09:15:19.820Z,98308.00
2023-03-16T09:17:50.575Z,98312.28
2023-03-16T09:20:26.470Z,98312.91
2023-03-16T09:23:00.276Z,98310.75
2023-03-16T09:25:31.277Z,98306.41
2023-03-16T09:28:04.358Z,98305.31
2023-03-16T09:30:34.854Z,98299.72
2023-03-16T09:33:04.790Z,98294.13
2023-03-16T09:35:35.283Z,98287.97
2023-03-16T09:38:07.583Z,98287.75
2023-03-16T09:40:40.045Z,98274.22
2023-03-16T09:43:26.876Z,98276.00
2023-03-16T09:46:05.717Z,98274.28
2023-03-16T09:48:38.215Z,98280.50
2023-03-16T09:51:10.972Z,98278.81
2023-03-16T09:53:44.475Z,98279.13
2023-03-16T09:56:20.980Z,98272.19
2023-03-16T09:58:54.028Z,98264.00
2023-03-16T10:01:37.358Z,98258.09
2023-03-16T10:04:22.506Z,98244.25
2023-03-16T10:07:04.522Z,98249.34
2023-03-16T10:09:40.749Z,98249.63
2023-03-16T10:12:12.651Z,98249.50
2023-03-16T10:14:51.116Z,98245.25
2023-03-16T10:17:24.513Z,98236.25
2023-03-16T10:19:58.692Z,98239.00
2023-03-16T10:22:33.669Z,98244.72
2023-03-16T10:25:10.227Z,98233.69
2023-03-16T10:27:43.137Z,98249.97
2023-03-16T10:30:24.765Z,98247.66
2023-03-16T10:32:55.178Z,98247.59
2023-03-16T10:35:44.546Z,98248.13
2023-03-16T10:38:30.832Z,98240.94
2023-03-16T10:41:01.129Z,98233.84
2023-03-16T10:43:32.963Z,98222.16
2023-03-16T10:46:07.062Z,98232.38
2023-03-16T10:48:37.065Z,98229.84
2023-03-16T10:51:12.092Z,98219.56
2023-03-16T10:53:45.283Z,98216.50
2023-03-16T10:56:22.724Z,98219.78
2023-03-16T10:58:52.790Z,98218.16
2023-03-16T11:01:29.806Z,98220.09
2023-03-16T11:04:02.522Z,98205.34
2023-03-16T11:06:35.433Z,98208.63
2023-03-16T11:09:10.153Z,98210.47
2023-03-16T11:11:40.358Z,98202.53
2023-03-16T11:14:16.205Z,98193.75
2023-03-16T11:16:52.898Z,98195.38
2023-03-16T11:19:27.773Z,98199.28
2023-03-16T11:22:01.652Z,98191.94
2023-03-16T11:24:42.538Z,98206.03
2023-03-16T11:27:23.681Z,98203.56
2023-03-16T11:30:06.942Z,98194.78
2023-03-16T11:32:42.534Z,98185.88
2023-03-16T11:35:19.710Z,98181.34
2023-03-16T11:38:02.296Z,98182.81
2023-03-16T11:40:43.813Z,98180.94
2023-03-16T11:43:30.566Z,98178.00
2023-03-16T11:46:13.548Z,98188.63
2023-03-16T11:48:51.576Z,98172.56
2023-03-16T11:51:36.457Z,98184.34
2023-03-16T11:54:20.348Z,98171.69
2023-03-16T11:56:55.834Z,98170.13
2023-03-16T11:59:55.504Z,98168.00
2023-03-16T12:02:42.244Z,98159.47
2023-03-16T12:05:48.035Z,98156.03
2023-03-16T12:08:43.829Z,98152.63
2023-03-16T12:11:17.595Z,98143.09
2023-03-16T12:14:03.576Z,98148.28
2023-03-16T12:16:48.725Z,98133.63
2023-03-16T12:19:25.210Z,98138.44
2023-03-16T12:22:10.484Z,98131.56
2023-03-16T12:24:47.408Z,98125.13
2023-03-16T12:27:20.530Z,98115.31
2023-03-16T12:30:00.152Z,98107.03
2023-03-16T12:32:42.512Z,98110.97
2023-03-16T12:35:24.766Z,98106.56
2023-03-16T12:38:20.675Z,98104.72
2023-03-16T12:40:56.076Z,98122.56
2023-03-16T12:43:48.082Z,98122.75
2023-03-16T12:46:25.891Z,98106.03
2023-03-16T12:49:00.403Z,98107.47
2023-03-16T12:51:37.387Z,98104.69
2023-03-16T12:54:21.955Z,98103.53
2023-03-16T12:56:54.328Z,98110.06
2023-03-16T12:59:26.073Z,98097.66
2023-03-16T13:02:01.251Z,98094.81
2023-03-16T13:04:35.766Z,98098.69
2023-03-16T13:07:09.662Z,98093.66
2023-03-16T13:09:48.451Z,98080.91
2023-03-16T13:12:27.109Z,98092.56
2023-03-16T13:14:57.920Z,98088.84
2023-03-16T13:17:32.208Z,98085.75
2023-03-16T13:20:31.306Z,98086.22
2023-03-16T13:23:24.584Z,98073.41
2023-03-16T13:26:18.785Z,98069.97
2023-03-16T13:28:58.232Z,98081.00
2023-03-16T13:31:31.910Z,98078.44
2023-03-16T13:34:04.003Z,98077.31
2023-03-16T13:36:35.930Z,98071.78
2023-03-16T13:39:09.906Z,98069.06
2023-03-16T13:41:43.582Z,98074.88
2023-03-16T13:44:19.181Z,98065.09
2023-03-16T13:46:51.879Z,98069.63
2023-03-16T13:49:22.590Z,98065.56
2023-03-16T13:51:53.925Z,98059.19
2023-03-16T13:54:28.132Z,98050.69
2023-03-16T13:57:07.534Z,98058.50
2023-03-16T13:59:38.281Z,98066.59
2023-03-16T14:02:20.850Z,98045.00
2023-03-16T14:04:51.386Z,98043.91
2023-03-16T14:07:24.847Z,98043.22
2023-03-16T14:09:58.994Z,98045.84
2023-03-16T14:12:31.432Z,98053.56
2023-03-16T14:15:01.572Z,98039.03
2023-03-16T14:17:32.083Z,98035.66
2023-03-16T14:20:04.168Z,98029.75
2023-03-16T14:22:37.748Z,98025.66
2023-03-16T14:25:10.444Z,98026.63
2023-03-16T14:28:09.495Z,98029.56
2023-03-16T14:30:40.753Z,98021.44
2023-03-16T14:33:31.235Z,98008.94
2023-03-16T14:36:05.965Z,98004.09
2023-03-16T14:38:40.715Z,97998.91
2023-03-16T14:41:26.737Z,98002.09
2023-03-16T14:44:04.566Z,97998.13
2023-03-16T14:46:43.040Z,97988.88
2023-03-16T14:49:24.760Z,97988.81
2023-03-16T14:51:59.260Z,97983.19
2023-03-16T14:54:30.232Z,97969.78
2023-03-16T14:57:03.984Z,97981.00
2023-03-16T14:59:37.005Z,97979.69
2023-03-16T15:02:17.759Z,97977.66
2023-03-16T15:04:49.911Z,97984.72
2023-03-16T15:07:26.815Z,97981.63
2023-03-16T15:09:59.276Z,97990.31
2023-03-16T15:12:29.168Z,97989.31
2023-03-16T15:15:14.319Z,97986.63
2023-03-16T15:17:44.534Z,97993.47
2023-03-16T15:20:16.280Z,97984.72
2023-03-16T15:22:48.203Z,97994.78
2023-03-16T15:25:28.806Z,97991.03
2023-03-16T15:27:59.405Z,97975.34
2023-03-16T15:30:32.336Z,97978.75
2023-03-16T15:33:02.239Z,97976.31
2023-03-16T15:35:32.635Z,97973.53
2023-03-16T15:38:04.532Z,97975.28
2023-03-16T15:40:35.088Z,97973.19
2023-03-16T15:43:05.182Z,97975.19
2023-03-16T15:45:38.258Z,97964.66
2023-03-16T15:48:10.919Z,97968.22
2023-03-16T15:50:42.116Z,97973.06
2023-03-16T15:53:29.997Z,97979.16
2023-03-16T15:56:03.736Z,97976.66
2023-03-16T15:58:35.657Z,97975.66
2023-03-16T16:01:09.877Z,97978.19
2023-03-16T16:03:40.680Z,97973.63
2023-03-16T16:06:13.679Z,97983.06
2023-03-16T16:08:43.943Z,97976.72
2023-03-16T16:11:18.172Z,97974.41
2023-03-16T16:13:48.693Z,97984.34
2023-03-16T16:16:22.316Z,97981.56
2023-03-16T16:18:52.421Z,97974.97
2023-03-16T16:21:25.196Z,97985.63
2023-03-16T16:23:56.080Z,97972.88
2023-03-16T16:26:45.483Z,97972.31
2023-03-16T16:29:19.022Z,97964.13
2023-03-16T16:31:52.198Z,97970.09
2023-03-16T16:34:24.754Z,97977.25
2023-03-16T16:36:55.700Z,97972.81
2023-03-16T16:39:26.265Z,97969.13
2023-03-16T16:41:59.528Z,97966.41
2023-03-16T16:44:35.291Z,97969.59
2023-03-16T16:47:19.001Z,97968.81
2023-03-16T16:49:49.576Z,97968.63
2023-03-16T16:52:20.320Z,97966.25
2023-03-16T16:54:53.445Z,97966.84
2023-03-16T16:57:39.416Z,97955.63
2023-03-16T17:00:19.939Z,97960.13
2023-03-16T17:02:54.721Z,97955.56
2023-03-16T17:05:27.766Z,97958.84
2023-03-16T17:08:03.809Z,97961.53
2023-03-16T17:10:37.929Z,97966.56
2023-03-16T17:13:08.588Z,97961.06
2023-03-16T17:15:38.730Z,97958.63
2023-03-16T17:18:17.799Z,97960.53
2023-03-16T17:20:48.203Z,97959.28
2023-03-16T17:23:31.309Z,97956.25
2023-03-16T17:26:07.654Z,97954.03
2023-03-16T17:28:41.902Z,97950.25
2023-03-16T17:31:14.006Z,97947.69
2023-03-16T17:33:47.333Z,97954.31
2023-03-16T17:36:22.072Z,97951.97
2023-03-16T17:38:53.977Z,97959.84
2023-03-16T17:41:27.256Z,97955.00
2023-03-16T17:44:00.105Z,97962.72
2023-03-16T17:46:33.235Z,97959.06
2023-03-16T17:49:13.306Z,97956.47
2023-03-16T17:51:44.732Z,97951.47
2023-03-16T17:54:15.318Z,97951.91
2023-03-16T17:56:53.758Z,97954.50
2023-03-16T17:59:25.029Z,97960.06
2023-03-16T18:01:55.118Z,97954.47
2023-03-16T18:04:29.267Z,97959.28
2023-03-16T18:06:59.809Z,97955.88
2023-03-16T18:09:31.402Z,97952.13
2023-03-16T18:12:01.532Z,97950.56
2023-03-16T18:14:38.041Z,97957.00
2023-03-16T18:17:19.171Z,97958.06
2023-03-16T18:19:52.317Z,97953.59
2023-03-16T18:22:25.083Z,97954.38
2023-03-16T18:25:04.310Z,97952.00
2023-03-16T18:27:34.944Z,97952.59
2023-03-16T18:30:05.474Z,97959.94
2023-03-16T18:32:35.905Z,97954.84
2023-03-16T18:35:09.395Z,97956.53
2023-03-16T18:37:39.432Z,97950.47
2023-03-16T18:40:14.019Z,97951.25
2023-03-16T18:42:44.589Z,97957.59
2023-03-16T18:45:17.702Z,97951.72
2023-03-16T18:47:53.511Z,97952.75
2023-03-16T18:50:30.624Z,97946.59
2023-03-16T18:53:01.039Z,97949.25
2023-03-16T18:55:32.131Z,97954.34
2023-03-16T18:58:02.364Z,97945.13
2023-03-16T19:00:33.522Z,97944.97
2023-03-16T19:03:07.314Z,97945.31
2023-03-16T19:05:41.160Z,97945.88
2023-03-16T19:08:15.987Z,97938.63
2023-03-16T19:10:51.146Z,97947.53
2023-03-16T19:13:23.192Z,97944.88
2023-03-16T19:15:55.214Z,97942.41
2023-03-16T19:18:26.304Z,97945.06
2023-03-16T19:20:59.881Z,97941.59
2023-03-16T19:23:33.411Z,97947.19
2023-03-16T19:26:03.345Z,97933.22
2023-03-16T19:28:37.960Z,97938.50
2023-03-16T19:31:17.071Z,97936.03
2023-03-16T19:33:48.227Z,97932.78
2023-03-16T19:36:24.838Z,97935.84
2023-03-16T19:38:55.562Z,97934.97
2023-03-16T19:41:28.860Z,97929.63
2023-03-16T19:44:01.165Z,97929.91
2023-03-16T19:46:33.877Z,97939.16
2023-03-16T19:49:03.943Z,97928.56
2023-03-16T19:51:39.205Z,97934.00
2023-03-16T19:54:09.226Z,97938.91
2023-03-16T19:56:43.714Z,97932.84
2023-03-16T19:59:14.779Z,97933.75
2023-03-16T20:01:44.875Z,97930.28
2023-03-16T20:04:18.599Z,97933.06
2023-03-16T20:06:51.997Z,97932.59
2023-03-16T20:09:22.747Z,97926.28
2023-03-16T20:11:53.261Z,97919.97
2023-03-16T20:14:29.390Z,97919.09
2023-03-16T20:16:59.587Z,97915.78
2023-03-16T20:19:29.736Z,97910.47
2023-03-16T20:22:02.602Z,97919.19
2023-03-16T20:24:33.264Z,97918.91
2023-03-16T20:27:03.403Z,97917.09
2023-03-16T20:29:35.299Z,97919.13
2023-03-16T20:32:09.509Z,97913.50
2023-03-16T20:34:39.580Z,97916.00
2023-03-16T20:37:25.029Z,97916.81
2023-03-16T20:39:55.775Z,97921.56
2023-03-16T20:42:29.034Z,97933.44
2023-03-16T20:44:59.265Z,97930.78
2023-03-16T20:47:30.292Z,97935.25
2023-03-16T20:50:00.332Z,97926.09
2023-03-16T20:52:33.891Z,97926.44
2023-03-16T20:55:05.464Z,97916.47
2023-03-16T20:57:40.279Z,97923.59
2023-03-16T21:00:23.498Z,97912.22
2023-03-16T21:02:53.793Z,97906.88
2023-03-16T21:05:24.974Z,97914.47
2023-03-16T21:07:58.148Z,97913.03
2023-03-16T21:10:29.517Z,97913.50
2023-03-16T21:13:00.388Z,97912.25
2023-03-16T21:15:33.454Z,97913.97
2023-03-16T21:18:05.222Z,97905.59
2023-03-16T21:20:37.347Z,97901.81
2023-03-16T21:23:16.180Z,97902.75
2023-03-16T21:25:50.610Z,97895.16
2023-03-16T21:28:22.558Z,97898.63
2023-03-16T21:30:55.362Z,97901.81
2023-03-16T21:33:31.149Z,97893.59
2023-03-16T21:36:02.419Z,97898.19
2023-03-16T21:38:36.308Z,97901.50
2023-03-16T21:41:07.400Z,97889.22
2023-03-16T21:43:37.766Z,97894.53
2023-03-16T21:46:10.075Z,97899.59
2023-03-16T21:48:42.138Z,97895.47
2023-03-16T21:51:17.048Z,97885.16
2023-03-16T21:53:52.097Z,97889.72
2023-03-16T21:56:26.360Z,97887.16
2023-03-16T21:58:57.226Z,97882.94
2023-03-16T22:01:29.240Z,97884.53
2023-03-16T22:04:01.649Z,97883.63
2023-03-16T22:06:32.199Z,97878.22
2023-03-16T22:09:05.009Z,97871.16
2023-03-16T22:11:35.005Z,97867.63
2023-03-16T22:14:05.281Z,97880.16
2023-03-16T22:16:39.535Z,97874.31
2023-03-16T22:19:15.968Z,97872.19
2023-03-16T22:21:48.519Z,97870.53
2023-03-16T22:24:25.180Z,97867.13
2023-03-16T22:26:55.705Z,97857.00
2023-03-16T22:29:28.430Z,97862.59
2023-03-16T22:32:03.516Z,97860.13
2023-03-16T22:34:38.263Z,97869.91
2023-03-16T22:37:08.732Z,97865.09
2023-03-16T22:39:42.957Z,97854.97
2023-03-16T22:42:30.790Z,97859.69
2023-03-16T22:45:01.386Z,97853.16
2023-03-16T22:47:34.387Z,97852.03
2023-03-16T22:50:04.846Z,97852.81
2023-03-16T22:52:38.369Z,97842.34
2023-03-16T22:55:19.245Z,97841.91
2023-03-16T22:57:50.370Z,97839.78
2023-03-16T23:00:22.566Z,97840.56
2023-03-16T23:02:52.607Z,97841.34
2023-03-16T23:05:25.808Z,97838.66
2023-03-16T23:07:56.612Z,97830.09
2023-03-16T23:10:31.339Z,97829.81
2023-03-16T23:13:02.439Z,97834.81
2023-03-16T23:15:33.802Z,97832.91
2023-03-16T23:18:03.793Z,97829.59
2023-03-16T23:20:35.321Z,97830.41
2023-03-16T23:23:05.686Z,97820.63
2023-03-16T23:25:38.509Z,97826.94
2023-03-16T23:28:09.887Z,97822.16
2023-03-16T23:30:40.267Z,97829.06
2023-03-16T23:33:10.616Z,97819.28
2023-03-16T23:35:41.514Z,97814.22
2023-03-16T23:38:11.698Z,97814.22
2023-03-16T23:40:44.344Z,97814.91
2023-03-16T23:43:14.643Z,97817.94
2023-03-16T23:45:48.258Z,97811.78
2023-03-16T23:48:19.906Z,97814.47
2023-03-16T23:50:52.593Z,97818.25
2023-03-16T23:53:24.513Z,97814.66
2023-03-16T23:55:57.416Z,97814.66
2023-03-16T23:58:27.532Z,97814.38
